sensor_id;sensor_type;location;lat;lon;timestamp;pressure;altitude;pressure_sealevel;temperature;humidity
64521;BME280;50896;46.714;17.322;2023-03-15T00:01:15;99370.91;;;10.34;100.00
64521;BME280;50896;46.714;17.322;2023-03-15T00:03:45;99371.13;;;10.39;100.00
64521;BME280;50896;46.714;17.322;2023-03-15T00:06:12;99373.72;;;10.33;100.00
64521;BME280;50896;46.714;17.322;2023-03-15T00:08:39;99370.69;;;10.36;100.00
64521;BME280;50896;46.714;17.322;2023-03-15T00:11:06;99375.53;;;10.32;100.00
64521;BME280;50896;46.714;17.322;2023-03-15T00:13:33;99369.50;;;10.38;100.00
64521;BME280;50896;46.714;17.322;2023-03-15T00:16:02;99372.41;;;10.43;100.00
64521;BME280;50896;46.714;17.322;2023-03-15T00:18:29;99360.16;;;10.27;100.00
64521;BME280;50896;46.714;17.322;2023-03-15T00:20:57;99371.25;;;10.31;100.00
64521;BME280;50896;46.714;17.322;2023-03-15T00:23:24;99376.38;;;10.33;100.00
64521;BME280;50896;46.714;17.322;2023-03-15T00:25:52;99356.84;;;10.25;100.00
64521;BME280;50896;46.714;17.322;2023-03-15T00:28:19;99379.94;;;10.40;100.00
64521;BME280;50896;46.714;17.322;2023-03-15T00:30:46;99380.22;;;10.30;100.00
64521;BME280;50896;46.714;17.322;2023-03-15T00:33:14;99390.84;;;10.30;100.00
64521;BME280;50896;46.714;17.322;2023-03-15T00:35:43;99391.84;;;10.29;100.00
64521;BME280;50896;46.714;17.322;2023-03-15T00:38:11;99386.63;;;10.21;100.00
64521;BME280;50896;46.714;17.322;2023-03-15T00:40:40;99397.44;;;10.19;100.00
64521;BME280;50896;46.714;17.322;2023-03-15T00:43:07;99369.06;;;10.05;100.00
64521;BME280;50896;46.714;17.322;2023-03-15T00:45:35;99402.00;;;10.25;100.00
64521;BME280;50896;46.714;17.322;2023-03-15T00:48:02;99407.44;;;10.17;100.00
64521;BME280;50896;46.714;17.322;2023-03-15T00:50:29;99395.97;;;10.17;100.00
64521;BME280;50896;46.714;17.322;2023-03-15T00:52:55;99395.78;;;10.18;100.00
64521;BME280;50896;46.714;17.322;2023-03-15T00:55:22;99404.59;;;10.19;100.00
64521;BME280;50896;46.714;17.322;2023-03-15T00:57:49;99404.13;;;10.15;100.00
64521;BME280;50896;46.714;17.322;2023-03-15T01:00:20;99409.63;;;10.14;100.00
64521;BME280;50896;46.714;17.322;2023-03-15T01:02:51;99394.06;;;10.11;100.00
64521;BME280;50896;46.714;17.322;2023-03-15T01:05:20;99398.53;;;10.10;100.00
64521;BME280;50896;46.714;17.322;2023-03-15T01:07:47;99403.41;;;10.06;100.00
64521;BME280;50896;46.714;17.322;2023-03-15T01:10:15;99397.19;;;9.99;100.00
64521;BME280;50896;46.714;17.322;2023-03-15T01:12:42;99389.84;;;10.01;100.00
64521;BME280;50896;46.714;17.322;2023-03-15T01:15:12;99400.56;;;9.93;100.00
64521;BME280;50896;46.714;17.322;2023-03-15T01:17:40;99397.72;;;9.95;100.00
64521;BME280;50896;46.714;17.322;2023-03-15T01:20:08;99395.06;;;9.95;100.00
64521;BME280;50896;46.714;17.322;2023-03-15T01:22:35;99383.44;;;9.81;100.00
64521;BME280;50896;46.714;17.322;2023-03-15T01:25:02;99389.69;;;9.88;100.00
64521;BME280;50896;46.714;17.322;2023-03-15T01:27:29;99400.75;;;9.91;100.00
64521;BME280;50896;46.714;17.322;2023-03-15T01:29:56;99402.09;;;9.87;100.00
64521;BME280;50896;46.714;17.322;2023-03-15T01:32:23;99396.88;;;9.79;100.00
64521;BME280;50896;46.714;17.322;2023-03-15T01:34:50;99396.69;;;9.81;100.00
64521;BME280;50896;46.714;17.322;2023-03-15T01:37:17;99393.69;;;9.84;100.00
64521;BME280;50896;46.714;17.322;2023-03-15T01:39:47;99385.88;;;9.82;100.00
64521;BME280;50896;46.714;17.322;2023-03-15T01:42:14;99391.66;;;9.71;100.00
64521;BME280;50896;46.714;17.322;2023-03-15T01:44:48;99390.47;;;9.73;100.00
64521;BME280;50896;46.714;17.322;2023-03-15T01:47:15;99392.03;;;9.68;100.00
64521;BME280;50896;46.714;17.322;2023-03-15T01:49:44;99383.25;;;9.67;100.00
64521;BME280;50896;46.714;17.322;2023-03-15T01:52:22;99395.94;;;9.57;100.00
64521;BME280;50896;46.714;17.322;2023-03-15T01:55:03;99403.91;;;9.57;100.00
64521;BME280;50896;46.714;17.322;2023-03-15T01:57:48;99385.13;;;9.58;100.00
64521;BME280;50896;46.714;17.322;2023-03-15T02:00:18;99388.16;;;9.55;100.00
64521;BME280;50896;46.714;17.322;2023-03-15T02:02:57;99385.06;;;9.52;100.00
64521;BME280;50896;46.714;17.322;2023-03-15T02:05:31;99393.66;;;9.54;100.00
64521;BME280;50896;46.714;17.322;2023-03-15T02:08:03;99381.13;;;9.48;100.00
64521;BME280;50896;46.714;17.322;2023-03-15T02:10:41;99369.28;;;9.35;100.00
64521;BME280;50896;46.714;17.322;2023-03-15T02:13:13;99375.22;;;9.37;100.00
64521;BME280;50896;46.714;17.322;2023-03-15T02:15:41;99375.88;;;9.39;100.00
64521;BME280;50896;46.714;17.322;2023-03-15T02:18:20;99405.44;;;9.36;100.00
64521;BME280;50896;46.714;17.322;2023-03-15T02:20:55;99371.91;;;9.20;97.61
64521;BME280;50896;46.714;17.322;2023-03-15T02:23:27;99393.88;;;9.29;98.57
64521;BME280;50896;46.714;17.322;2023-03-15T02:28:41;99399.16;;;9.29;100.00
64521;BME280;50896;46.714;17.322;2023-03-15T02:31:10;99398.91;;;9.24;98.91
64521;BME280;50896;46.714;17.322;2023-03-15T02:33:43;99415.44;;;9.26;100.00
64521;BME280;50896;46.714;17.322;2023-03-15T02:36:21;99417.97;;;9.19;99.98
64521;BME280;50896;46.714;17.322;2023-03-15T02:38:49;99387.59;;;9.07;100.00
64521;BME280;50896;46.714;17.322;2023-03-15T02:41:27;99430.41;;;9.19;100.00
64521;BME280;50896;46.714;17.322;2023-03-15T02:44:00;99421.66;;;9.18;100.00
64521;BME280;50896;46.714;17.322;2023-03-15T02:46:28;99412.09;;;9.09;99.51
64521;BME280;50896;46.714;17.322;2023-03-15T02:48:56;99426.84;;;9.12;100.00
64521;BME280;50896;46.714;17.322;2023-03-15T02:51:24;99415.47;;;9.03;100.00
64521;BME280;50896;46.714;17.322;2023-03-15T02:53:52;99423.41;;;9.03;100.00
64521;BME280;50896;46.714;17.322;2023-03-15T02:56:19;99426.53;;;9.06;100.00
64521;BME280;50896;46.714;17.322;2023-03-15T02:58:47;99427.88;;;9.02;100.00
64521;BME280;50896;46.714;17.322;2023-03-15T03:01:14;99432.91;;;8.97;100.00
64521;BME280;50896;46.714;17.322;2023-03-15T03:03:43;99430.53;;;9.02;100.00
64521;BME280;50896;46.714;17.322;2023-03-15T03:06:13;99439.66;;;9.00;100.00
64521;BME280;50896;46.714;17.322;2023-03-15T03:08:41;99423.00;;;8.91;100.00
64521;BME280;50896;46.714;17.322;2023-03-15T03:11:15;99445.97;;;8.99;100.00
64521;BME280;50896;46.714;17.322;2023-03-15T03:13:42;99441.19;;;8.94;100.00
64521;BME280;50896;46.714;17.322;2023-03-15T03:16:09;99444.72;;;8.86;100.00
64521;BME280;50896;46.714;17.322;2023-03-15T03:18:38;99446.88;;;8.83;100.00
64521;BME280;50896;46.714;17.322;2023-03-15T03:21:06;99463.91;;;8.88;100.00
64521;BME280;50896;46.714;17.322;2023-03-15T03:23:34;99478.19;;;8.87;100.00
64521;BME280;50896;46.714;17.322;2023-03-15T03:26:02;99485.13;;;8.88;100.00
64521;BME280;50896;46.714;17.322;2023-03-15T03:28:31;99480.84;;;8.87;100.00
64521;BME280;50896;46.714;17.322;2023-03-15T03:31:00;99478.69;;;8.83;100.00
64521;BME280;50896;46.714;17.322;2023-03-15T03:33:29;99477.16;;;8.88;100.00
64521;BME280;50896;46.714;17.322;2023-03-15T03:36:00;99460.66;;;8.78;100.00
64521;BME280;50896;46.714;17.322;2023-03-15T03:38:28;99480.88;;;8.79;100.00
64521;BME280;50896;46.714;17.322;2023-03-15T03:40:58;99494.13;;;8.79;100.00
64521;BME280;50896;46.714;17.322;2023-03-15T03:43:27;99489.97;;;8.85;100.00
64521;BME280;50896;46.714;17.322;2023-03-15T03:45:54;99483.19;;;8.82;100.00
64521;BME280;50896;46.714;17.322;2023-03-15T03:48:21;99490.00;;;8.77;100.00
64521;BME280;50896;46.714;17.322;2023-03-15T03:50:48;99511.16;;;8.85;100.00
64521;BME280;50896;46.714;17.322;2023-03-15T03:53:15;99519.78;;;8.79;100.00
64521;BME280;50896;46.714;17.322;2023-03-15T03:55:42;99531.25;;;8.79;100.00
64521;BME280;50896;46.714;17.322;2023-03-15T03:58:09;99527.13;;;8.68;100.00
64521;BME280;50896;46.714;17.322;2023-03-15T04:00:40;99516.75;;;8.59;100.00
64521;BME280;50896;46.714;17.322;2023-03-15T04:03:10;99522.34;;;8.64;100.00
64521;BME280;50896;46.714;17.322;2023-03-15T04:05:40;99525.69;;;8.58;100.00
64521;BME280;50896;46.714;17.322;2023-03-15T04:08:07;99536.44;;;8.56;100.00
64521;BME280;50896;46.714;17.322;2023-03-15T04:10:37;99517.56;;;8.51;100.00
64521;BME280;50896;46.714;17.322;2023-03-15T04:13:04;99529.19;;;8.50;100.00
64521;BME280;50896;46.714;17.322;2023-03-15T04:15:31;99538.13;;;8.41;100.00
64521;BME280;50896;46.714;17.322;2023-03-15T04:17:58;99525.88;;;8.39;100.00
64521;BME280;50896;46.714;17.322;2023-03-15T04:20:31;99534.16;;;8.45;100.00
64521;BME280;50896;46.714;17.322;2023-03-15T04:23:02;99531.00;;;8.33;100.00
64521;BME280;50896;46.714;17.322;2023-03-15T04:25:52;99539.31;;;8.21;100.00
64521;BME280;50896;46.714;17.322;2023-03-15T04:28:38;99543.59;;;8.31;100.00
64521;BME280;50896;46.714;17.322;2023-03-15T04:31:23;99534.19;;;8.20;100.00
64521;BME280;50896;46.714;17.322;2023-03-15T04:34:19;99540.34;;;8.12;100.00
64521;BME280;50896;46.714;17.322;2023-03-15T04:37:10;99548.59;;;8.09;100.00
64521;BME280;50896;46.714;17.322;2023-03-15T04:39:57;99555.88;;;8.15;100.00
64521;BME280;50896;46.714;17.322;2023-03-15T04:42:29;99561.81;;;8.17;100.00
64521;BME280;50896;46.714;17.322;2023-03-15T04:45:29;99550.94;;;8.04;100.00
64521;BME280;50896;46.714;17.322;2023-03-15T04:48:28;99550.25;;;7.94;100.00
64521;BME280;50896;46.714;17.322;2023-03-15T04:51:06;99534.38;;;7.85;100.00
64521;BME280;50896;46.714;17.322;2023-03-15T04:53:52;99551.41;;;7.99;100.00
64521;BME280;50896;46.714;17.322;2023-03-15T04:56:54;99539.53;;;7.87;100.00
64521;BME280;50896;46.714;17.322;2023-03-15T04:59:47;99551.28;;;7.93;100.00
64521;BME280;50896;46.714;17.322;2023-03-15T05:02:17;99566.81;;;7.96;100.00
64521;BME280;50896;46.714;17.322;2023-03-15T05:05:07;99569.47;;;7.87;100.00
64521;BME280;50896;46.714;17.322;2023-03-15T05:07:52;99578.03;;;7.90;100.00
64521;BME280;50896;46.714;17.322;2023-03-15T05:10:30;99565.81;;;7.80;100.00
64521;BME280;50896;46.714;17.322;2023-03-15T05:13:33;99579.06;;;7.80;100.00
64521;BME280;50896;46.714;17.322;2023-03-15T05:16:12;99585.84;;;7.75;100.00
64521;BME280;50896;46.714;17.322;2023-03-15T05:18:41;99582.34;;;7.74;100.00
64521;BME280;50896;46.714;17.322;2023-03-15T05:21:31;99549.94;;;7.56;100.00
64521;BME280;50896;46.714;17.322;2023-03-15T05:24:10;99582.00;;;7.85;100.00
64521;BME280;50896;46.714;17.322;2023-03-15T05:27:06;99585.97;;;7.81;100.00
64521;BME280;50896;46.714;17.322;2023-03-15T05:29:46;99582.50;;;7.64;100.00
64521;BME280;50896;46.714;17.322;2023-03-15T05:32:36;99594.06;;;7.72;100.00
64521;BME280;50896;46.714;17.322;2023-03-15T05:35:23;99597.38;;;7.57;100.00
64521;BME280;50896;46.714;17.322;2023-03-15T05:38:11;99598.34;;;7.48;100.00
64521;BME280;50896;46.714;17.322;2023-03-15T05:41:00;99586.91;;;7.39;100.00
64521;BME280;50896;46.714;17.322;2023-03-15T05:44:00;99603.75;;;7.38;100.00
64521;BME280;50896;46.714;17.322;2023-03-15T05:46:47;99604.13;;;7.43;100.00
64521;BME280;50896;46.714;17.322;2023-03-15T05:49:20;99602.63;;;7.49;100.00
64521;BME280;50896;46.714;17.322;2023-03-15T05:52:05;99600.31;;;7.38;100.00
64521;BME280;50896;46.714;17.322;2023-03-15T05:55:05;99624.47;;;7.43;100.00
64521;BME280;50896;46.714;17.322;2023-03-15T05:58:01;99627.13;;;7.51;100.00
64521;BME280;50896;46.714;17.322;2023-03-15T06:00:47;99624.75;;;7.31;100.00
64521;BME280;50896;46.714;17.322;2023-03-15T06:03:30;99636.50;;;7.37;100.00
64521;BME280;50896;46.714;17.322;2023-03-15T06:06:08;99640.81;;;7.46;100.00
64521;BME280;50896;46.714;17.322;2023-03-15T06:08:38;99626.94;;;7.44;100.00
64521;BME280;50896;46.714;17.322;2023-03-15T06:11:05;99622.63;;;7.43;100.00
64521;BME280;50896;46.714;17.322;2023-03-15T06:13:32;99636.03;;;7.50;100.00
64521;BME280;50896;46.714;17.322;2023-03-15T06:16:04;99631.75;;;7.49;100.00
64521;BME280;50896;46.714;17.322;2023-03-15T06:18:34;99632.91;;;7.55;100.00
64521;BME280;50896;46.714;17.322;2023-03-15T06:21:01;99633.38;;;7.42;100.00
64521;BME280;50896;46.714;17.322;2023-03-15T06:23:27;99660.69;;;7.59;97.61
64521;BME280;50896;46.714;17.322;2023-03-15T06:25:54;99665.16;;;7.58;98.10
64521;BME280;50896;46.714;17.322;2023-03-15T06:28:21;99663.16;;;7.52;98.23
64521;BME280;50896;46.714;17.322;2023-03-15T06:30:53;99639.97;;;7.38;96.17
64521;BME280;50896;46.714;17.322;2023-03-15T06:33:26;99663.16;;;7.44;97.33
64521;BME280;50896;46.714;17.322;2023-03-15T06:35:53;99654.41;;;7.51;97.40
64521;BME280;50896;46.714;17.322;2023-03-15T06:38:20;99660.84;;;7.57;98.46
64521;BME280;50896;46.714;17.322;2023-03-15T06:40:48;99673.13;;;7.66;98.39
64521;BME280;50896;46.714;17.322;2023-03-15T06:43:15;99659.53;;;7.61;97.93
64521;BME280;50896;46.714;17.322;2023-03-15T06:45:45;99690.34;;;7.70;98.59
64521;BME280;50896;46.714;17.322;2023-03-15T06:48:14;99706.53;;;7.76;99.49
64521;BME280;50896;46.714;17.322;2023-03-15T06:50:41;99703.25;;;7.74;97.69
64521;BME280;50896;46.714;17.322;2023-03-15T06:53:14;99704.94;;;7.83;99.17
64521;BME280;50896;46.714;17.322;2023-03-15T06:55:41;99687.88;;;7.77;95.14
64521;BME280;50896;46.714;17.322;2023-03-15T06:58:08;99704.25;;;7.81;94.46
64521;BME280;50896;46.714;17.322;2023-03-15T07:00:35;99711.53;;;7.79;95.53
64521;BME280;50896;46.714;17.322;2023-03-15T07:03:02;99711.03;;;7.83;94.64
64521;BME280;50896;46.714;17.322;2023-03-15T07:05:29;99743.28;;;7.79;95.58
64521;BME280;50896;46.714;17.322;2023-03-15T07:07:56;99744.47;;;7.84;96.20
64521;BME280;50896;46.714;17.322;2023-03-15T07:10:23;99732.13;;;7.59;91.73
64521;BME280;50896;46.714;17.322;2023-03-15T07:12:50;99724.38;;;7.65;92.09
64521;BME280;50896;46.714;17.322;2023-03-15T07:15:17;99744.75;;;7.73;92.67
64521;BME280;50896;46.714;17.322;2023-03-15T07:17:44;99746.03;;;7.61;93.44
64521;BME280;50896;46.714;17.322;2023-03-15T07:20:11;99750.84;;;7.65;94.61
64521;BME280;50896;46.714;17.322;2023-03-15T07:22:37;99764.75;;;7.67;96.45
64521;BME280;50896;46.714;17.322;2023-03-15T07:25:04;99768.34;;;7.58;89.61
64521;BME280;50896;46.714;17.322;2023-03-15T07:27:33;99777.41;;;7.56;91.00
64521;BME280;50896;46.714;17.322;2023-03-15T07:30:00;99772.59;;;7.51;90.23
64521;BME280;50896;46.714;17.322;2023-03-15T07:32:26;99776.72;;;7.45;91.09
64521;BME280;50896;46.714;17.322;2023-03-15T07:34:53;99773.28;;;7.27;92.76
64521;BME280;50896;46.714;17.322;2023-03-15T07:37:23;99785.31;;;7.47;92.74
64521;BME280;50896;46.714;17.322;2023-03-15T07:39:50;99782.16;;;7.44;85.27
64521;BME280;50896;46.714;17.322;2023-03-15T07:42:17;99778.50;;;7.45;83.74
64521;BME280;50896;46.714;17.322;2023-03-15T07:44:48;99771.31;;;7.29;83.92
64521;BME280;50896;46.714;17.322;2023-03-15T07:47:15;99775.97;;;7.35;83.86
64521;BME280;50896;46.714;17.322;2023-03-15T07:49:42;99765.06;;;7.38;83.11
64521;BME280;50896;46.714;17.322;2023-03-15T07:52:09;99760.63;;;7.39;80.71
64521;BME280;50896;46.714;17.322;2023-03-15T07:54:36;99756.66;;;7.34;79.11
64521;BME280;50896;46.714;17.322;2023-03-15T07:57:03;99780.06;;;7.56;80.77
64521;BME280;50896;46.714;17.322;2023-03-15T07:59:30;99781.88;;;7.55;76.38
64521;BME280;50896;46.714;17.322;2023-03-15T08:01:57;99786.31;;;7.55;76.72
64521;BME280;50896;46.714;17.322;2023-03-15T08:04:27;99797.22;;;7.51;75.36
64521;BME280;50896;46.714;17.322;2023-03-15T08:06:54;99773.59;;;7.24;77.29
64521;BME280;50896;46.714;17.322;2023-03-15T08:09:21;99803.59;;;7.41;77.96
64521;BME280;50896;46.714;17.322;2023-03-15T08:11:48;99800.78;;;7.34;76.24
64521;BME280;50896;46.714;17.322;2023-03-15T08:14:15;99797.78;;;7.29;75.55
64521;BME280;50896;46.714;17.322;2023-03-15T08:16:41;99807.31;;;7.22;75.79
64521;BME280;50896;46.714;17.322;2023-03-15T08:19:08;99787.19;;;7.29;77.21
64521;BME280;50896;46.714;17.322;2023-03-15T08:21:35;99788.34;;;7.26;76.07
64521;BME280;50896;46.714;17.322;2023-03-15T08:24:03;99796.75;;;7.22;78.26
64521;BME280;50896;46.714;17.322;2023-03-15T08:26:29;99781.47;;;6.89;76.37
64521;BME280;50896;46.714;17.322;2023-03-15T08:28:56;99799.84;;;6.91;79.34
64521;BME280;50896;46.714;17.322;2023-03-15T08:31:23;99797.13;;;6.82;78.71
64521;BME280;50896;46.714;17.322;2023-03-15T08:33:50;99789.41;;;6.71;82.33
64521;BME280;50896;46.714;17.322;2023-03-15T08:36:18;99800.59;;;6.83;80.82
64521;BME280;50896;46.714;17.322;2023-03-15T08:38:45;99804.25;;;6.90;82.57
64521;BME280;50896;46.714;17.322;2023-03-15T08:41:11;99802.75;;;6.88;84.24
64521;BME280;50896;46.714;17.322;2023-03-15T08:43:38;99809.56;;;6.90;82.24
64521;BME280;50896;46.714;17.322;2023-03-15T08:46:05;99814.69;;;6.74;82.66
64521;BME280;50896;46.714;17.322;2023-03-15T08:48:32;99761.88;;;6.38;79.81
64521;BME280;50896;46.714;17.322;2023-03-15T08:51:04;99803.47;;;6.54;83.82
64521;BME280;50896;46.714;17.322;2023-03-15T08:53:31;99795.53;;;6.54;84.49
64521;BME280;50896;46.714;17.322;2023-03-15T08:55:59;99817.41;;;6.64;83.68
64521;BME280;50896;46.714;17.322;2023-03-15T08:58:26;99837.72;;;6.45;84.88
64521;BME280;50896;46.714;17.322;2023-03-15T09:00:53;99829.88;;;6.54;83.27
64521;BME280;50896;46.714;17.322;2023-03-15T09:03:20;99831.97;;;6.68;84.73
64521;BME280;50896;46.714;17.322;2023-03-15T09:05:48;99834.84;;;6.75;86.04
64521;BME280;50896;46.714;17.322;2023-03-15T09:08:15;99841.97;;;6.74;83.72
64521;BME280;50896;46.714;17.322;2023-03-15T09:10:46;99815.41;;;6.58;87.93
64521;BME280;50896;46.714;17.322;2023-03-15T09:13:13;99844.88;;;6.71;89.75
64521;BME280;50896;46.714;17.322;2023-03-15T09:15:40;99829.25;;;6.42;86.18
64521;BME280;50896;46.714;17.322;2023-03-15T09:18:07;99821.25;;;6.52;88.02
64521;BME280;50896;46.714;17.322;2023-03-15T09:20:33;99815.47;;;6.48;87.73
64521;BME280;50896;46.714;17.322;2023-03-15T09:23:00;99831.69;;;6.71;87.35
64521;BME280;50896;46.714;17.322;2023-03-15T09:25:27;99839.97;;;6.40;84.84
64521;BME280;50896;46.714;17.322;2023-03-15T09:27:54;99839.75;;;6.33;85.53
64521;BME280;50896;46.714;17.322;2023-03-15T09:30:21;99855.00;;;6.40;86.35
64521;BME280;50896;46.714;17.322;2023-03-15T09:32:48;99857.88;;;6.64;89.54
64521;BME280;50896;46.714;17.322;2023-03-15T09:35:17;99831.31;;;6.48;84.56
64521;BME280;50896;46.714;17.322;2023-03-15T09:37:46;99857.75;;;6.84;87.49
64521;BME280;50896;46.714;17.322;2023-03-15T09:40:37;99867.53;;;6.92;89.39
64521;BME280;50896;46.714;17.322;2023-03-15T09:45:56;99873.44;;;6.86;84.50
64521;BME280;50896;46.714;17.322;2023-03-15T09:48:30;99879.38;;;6.88;88.51
64521;BME280;50896;46.714;17.322;2023-03-15T09:56:24;99869.34;;;6.73;85.23
64521;BME280;50896;46.714;17.322;2023-03-15T09:58:56;99901.66;;;6.85;84.31
64521;BME280;50896;46.714;17.322;2023-03-15T10:01:30;99881.75;;;6.73;83.67
64521;BME280;50896;46.714;17.322;2023-03-15T10:03:57;99885.50;;;6.70;80.09
64521;BME280;50896;46.714;17.322;2023-03-15T10:06:29;99898.34;;;6.83;79.36
64521;BME280;50896;46.714;17.322;2023-03-15T10:09:10;99895.78;;;6.91;79.56
64521;BME280;50896;46.714;17.322;2023-03-15T10:17:10;99891.25;;;7.46;76.55
64521;BME280;50896;46.714;17.322;2023-03-15T10:19:48;99895.13;;;7.33;77.21
64521;BME280;50896;46.714;17.322;2023-03-15T10:22:20;99896.13;;;7.59;76.84
64521;BME280;50896;46.714;17.322;2023-03-15T10:24:56;99907.25;;;7.62;78.76
64521;BME280;50896;46.714;17.322;2023-03-15T10:30:00;99895.41;;;7.48;74.84
64521;BME280;50896;46.714;17.322;2023-03-15T10:32:33;99909.19;;;7.60;75.35
64521;BME280;50896;46.714;17.322;2023-03-15T10:35:12;99907.94;;;7.46;75.08
64521;BME280;50896;46.714;17.322;2023-03-15T10:37:40;99917.78;;;7.54;74.79
64521;BME280;50896;46.714;17.322;2023-03-15T10:40:10;99906.00;;;7.48;72.34
64521;BME280;50896;46.714;17.322;2023-03-15T10:42:43;99914.53;;;7.42;73.01
64521;BME280;50896;46.714;17.322;2023-03-15T10:45:18;99907.97;;;7.28;72.38
64521;BME280;50896;46.714;17.322;2023-03-15T10:47:47;99923.03;;;7.28;71.29
64521;BME280;50896;46.714;17.322;2023-03-15T10:50:30;99933.66;;;7.36;71.55
64521;BME280;50896;46.714;17.322;2023-03-15T10:53:00;99938.06;;;7.45;71.55
64521;BME280;50896;46.714;17.322;2023-03-15T10:55:31;99927.81;;;7.50;67.70
64521;BME280;50896;46.714;17.322;2023-03-15T10:58:18;99909.72;;;7.38;60.78
64521;BME280;50896;46.714;17.322;2023-03-15T11:01:06;99919.63;;;7.35;62.98
64521;BME280;50896;46.714;17.322;2023-03-15T11:03:36;99907.53;;;7.33;60.75
64521;BME280;50896;46.714;17.322;2023-03-15T11:06:19;99894.75;;;7.28;61.79
64521;BME280;50896;46.714;17.322;2023-03-15T11:08:46;99889.63;;;7.27;47.60
64521;BME280;50896;46.714;17.322;2023-03-15T11:11:13;99906.19;;;7.29;46.50
64521;BME280;50896;46.714;17.322;2023-03-15T11:13:41;99891.28;;;7.28;47.49
64521;BME280;50896;46.714;17.322;2023-03-15T11:16:18;99888.50;;;7.29;46.18
64521;BME280;50896;46.714;17.322;2023-03-15T11:18:59;99897.03;;;7.41;48.91
64521;BME280;50896;46.714;17.322;2023-03-15T11:21:30;99910.53;;;7.38;44.25
64521;BME280;50896;46.714;17.322;2023-03-15T11:24:02;99921.25;;;7.36;45.44
64521;BME280;50896;46.714;17.322;2023-03-15T11:26:35;99917.06;;;7.26;45.40
64521;BME280;50896;46.714;17.322;2023-03-15T11:29:11;99928.84;;;7.31;48.27
64521;BME280;50896;46.714;17.322;2023-03-15T11:31:40;99920.91;;;7.31;48.39
64521;BME280;50896;46.714;17.322;2023-03-15T11:34:12;99941.28;;;7.39;46.65
64521;BME280;50896;46.714;17.322;2023-03-15T11:36:44;99934.13;;;7.49;44.17
64521;BME280;50896;46.714;17.322;2023-03-15T11:39:42;99935.19;;;7.39;43.17
64521;BME280;50896;46.714;17.322;2023-03-15T11:42:21;99944.09;;;7.38;43.48
64521;BME280;50896;46.714;17.322;2023-03-15T11:44:52;99922.13;;;7.37;45.02
64521;BME280;50896;46.714;17.322;2023-03-15T11:49:57;99948.00;;;7.51;45.89
64521;BME280;50896;46.714;17.322;2023-03-15T11:52:27;99925.41;;;7.39;44.19
64521;BME280;50896;46.714;17.322;2023-03-15T11:54:57;99947.25;;;7.59;44.63
64521;BME280;50896;46.714;17.322;2023-03-15T11:59:56;99933.00;;;7.60;44.64
64521;BME280;50896;46.714;17.322;2023-03-15T12:04:53;99926.44;;;7.64;46.07
64521;BME280;50896;46.714;17.322;2023-03-15T12:17:58;99931.34;;;7.85;47.57
64521;BME280;50896;46.714;17.322;2023-03-15T12:20:41;99919.63;;;7.88;45.61
64521;BME280;50896;46.714;17.322;2023-03-15T12:26:04;99925.59;;;7.90;46.69
64521;BME280;50896;46.714;17.322;2023-03-15T12:31:00;99929.81;;;8.09;46.23
64521;BME280;50896;46.714;17.322;2023-03-15T12:33:30;99935.25;;;7.99;44.52
64521;BME280;50896;46.714;17.322;2023-03-15T12:36:09;99918.56;;;8.07;43.91
64521;BME280;50896;46.714;17.322;2023-03-15T12:38:53;99943.22;;;8.08;45.17
64521;BME280;50896;46.714;17.322;2023-03-15T12:41:47;99952.06;;;8.25;44.66
64521;BME280;50896;46.714;17.322;2023-03-15T12:46:53;99960.91;;;8.33;44.59
64521;BME280;50896;46.714;17.322;2023-03-15T12:51:57;99961.22;;;8.30;43.04
64521;BME280;50896;46.714;17.322;2023-03-15T12:54:32;99946.25;;;8.47;47.18
64521;BME280;50896;46.714;17.322;2023-03-15T12:57:02;99962.34;;;8.54;45.18
64521;BME280;50896;46.714;17.322;2023-03-15T12:59:45;99962.56;;;8.69;44.57
64521;BME280;50896;46.714;17.322;2023-03-15T13:02:34;99946.56;;;8.44;44.87
64521;BME280;50896;46.714;17.322;2023-03-15T13:16:45;99977.09;;;8.57;45.37
64521;BME280;50896;46.714;17.322;2023-03-15T13:19:21;99966.31;;;8.58;43.54
64521;BME280;50896;46.714;17.322;2023-03-15T13:24:54;99973.94;;;8.53;40.73
64521;BME280;50896;46.714;17.322;2023-03-15T13:29:51;100019.31;;;8.50;39.89
64521;BME280;50896;46.714;17.322;2023-03-15T13:32:21;100003.56;;;8.57;41.44
64521;BME280;50896;46.714;17.322;2023-03-15T13:34:49;100008.72;;;8.58;39.05
64521;BME280;50896;46.714;17.322;2023-03-15T13:37:23;100016.22;;;8.63;42.82
64521;BME280;50896;46.714;17.322;2023-03-15T13:40:04;100019.44;;;8.48;41.20
64521;BME280;50896;46.714;17.322;2023-03-15T13:42:39;100026.03;;;8.44;39.54
64521;BME280;50896;46.714;17.322;2023-03-15T13:45:14;100026.78;;;8.54;40.45
64521;BME280;50896;46.714;17.322;2023-03-15T13:47:44;100006.75;;;8.60;41.02
64521;BME280;50896;46.714;17.322;2023-03-15T13:50:14;100009.72;;;8.57;40.33
64521;BME280;50896;46.714;17.322;2023-03-15T13:52:42;100022.66;;;8.60;41.58
64521;BME280;50896;46.714;17.322;2023-03-15T13:55:13;100023.94;;;8.56;40.86
64521;BME280;50896;46.714;17.322;2023-03-15T13:57:41;100035.03;;;8.51;41.48
64521;BME280;50896;46.714;17.322;2023-03-15T14:00:15;100041.47;;;8.49;42.59
64521;BME280;50896;46.714;17.322;2023-03-15T14:05:20;100032.69;;;8.48;39.83
64521;BME280;50896;46.714;17.322;2023-03-15T14:08:03;100044.72;;;8.43;38.37
64521;BME280;50896;46.714;17.322;2023-03-15T14:10:37;100040.06;;;8.36;40.54
64521;BME280;50896;46.714;17.322;2023-03-15T14:13:29;100051.78;;;8.34;41.95
64521;BME280;50896;46.714;17.322;2023-03-15T14:16:04;100041.13;;;8.26;40.63
64521;BME280;50896;46.714;17.322;2023-03-15T14:18:36;100053.56;;;8.25;38.88
64521;BME280;50896;46.714;17.322;2023-03-15T14:21:14;100040.16;;;8.27;39.06
64521;BME280;50896;46.714;17.322;2023-03-15T14:23:46;100044.97;;;8.05;38.85
64521;BME280;50896;46.714;17.322;2023-03-15T14:26:19;100060.00;;;8.23;38.42